Etusivu
METAR-TAF:

METAR-TAF

Lentoasemat :

Sevillan lentoasema

Sevilla, Espanja

Leveyspiiri: 37-25N, Pituuspiiri: 005-54W, korkeus merenpinnasta: 34 m

Tämänhetkinen sää

Tämä raportti tehtiin 31 minuuttia sitten, kello 07.30 UTC
Tuuli 3 kn lännestä/luoteesta, vaihdellen lännen/lounaan ja pohjoisen/luoteen välillä
Lämpötila 22°C
Kosteus 69%
Ilmanpaine 1019 hPa
Näkyvyys 10 km tai enemmän
ei pilviä alle 1500 m:ssä eikä cumulonimbus-pilviä

METAR: LEZL 140730Z 29003KT 250V330 CAVOK 22/16 Q1019 NOSIG

Aika: 10:01 (08:01 UTC)

Sääennuste

Tämä raportti tehtiin 6 tuntia ja 1 minuuttia sitten, kello 02.00 UTC
Ennuste voimassa 14. päivästä klo 03 UTC - 15. päivään klo 03 UTC
Tuuli 6 kn lounaasta
Näkyvyys 10 km tai enemmän
ei pilviä alle 1500 m:ssä eikä cumulonimbus-pilviä

TAF: LEZL 140200Z 1403/1503 23006KT CAVOK TX35/1415Z TN19/1405Z

Säähavainnot ja -ennusteet yli 4000 lentoasemalta (METAR- ja TAF-raportit).

Käytössä olevat sääasemat on merkitty karttaan keltaisilla ja punaisilla pisteillä.

Aseta hiiri pisteen päälle nähdäksesi sääaseman nimen.

Klikkaa sitten nähdäksesi säähavainnot ja -ennusteet.

Kartan vaihtaminen: klikkaa mustalla rastilla varustettuja vihreitä pisteitä, niin voit zoomata sisään; viivalla varustettua vihreää pistettä, niin voit zoomata ulos tai vihreitä nuolia, niin pääset viereisille kartoille.


METAR-TAF: